sensor_id;sensor_type;location;lat;lon;timestamp;temperature;humidity
72762;SHT30;60886;55.034;73.150;2022-11-15T00:00:31;2.81;85.13
72762;SHT30;60886;55.034;73.150;2022-11-15T00:03:26;2.80;85.21
72762;SHT30;60886;55.034;73.150;2022-11-15T00:06:17;2.80;84.97
72762;SHT30;60886;55.034;73.150;2022-11-15T00:09:02;2.81;84.83
72762;SHT30;60886;55.034;73.150;2022-11-15T00:11:57;2.74;85.05
72762;SHT30;60886;55.034;73.150;2022-11-15T00:14:42;2.70;85.25
72762;SHT30;60886;55.034;73.150;2022-11-15T00:17:26;2.71;85.45
72762;SHT30;60886;55.034;73.150;2022-11-15T00:20:11;2.64;85.67
72762;SHT30;60886;55.034;73.150;2022-11-15T00:22:56;2.65;85.72
72762;SHT30;60886;55.034;73.150;2022-11-15T00:25:41;2.70;85.75
72762;SHT30;60886;55.034;73.150;2022-11-15T00:28:33;2.73;85.67
72762;SHT30;60886;55.034;73.150;2022-11-15T00:31:18;2.68;85.58
72762;SHT30;60886;55.034;73.150;2022-11-15T00:34:03;2.73;85.83
72762;SHT30;60886;55.034;73.150;2022-11-15T00:36:47;2.70;85.68
72762;SHT30;60886;55.034;73.150;2022-11-15T00:39:32;2.73;85.52
72762;SHT30;60886;55.034;73.150;2022-11-15T00:42:17;2.77;85.63
72762;SHT30;60886;55.034;73.150;2022-11-15T00:45:02;2.84;85.50
72762;SHT30;60886;55.034;73.150;2022-11-15T00:47:47;2.79;85.57
72762;SHT30;60886;55.034;73.150;2022-11-15T00:50:32;2.79;85.21
72762;SHT30;60886;55.034;73.150;2022-11-15T00:53:17;2.77;85.26
72762;SHT30;60886;55.034;73.150;2022-11-15T00:56:01;2.74;85.45
72762;SHT30;60886;55.034;73.150;2022-11-15T00:58:46;2.77;85.50
72762;SHT30;60886;55.034;73.150;2022-11-15T01:01:31;2.76;85.44
72762;SHT30;60886;55.034;73.150;2022-11-15T01:04:16;2.79;85.43
72762;SHT30;60886;55.034;73.150;2022-11-15T01:07:00;2.81;85.18
72762;SHT30;60886;55.034;73.150;2022-11-15T01:09:49;2.79;85.52
72762;SHT30;60886;55.034;73.150;2022-11-15T01:12:36;2.83;85.45
72762;SHT30;60886;55.034;73.150;2022-11-15T01:15:21;2.76;85.11
72762;SHT30;60886;55.034;73.150;2022-11-15T01:18:06;2.77;85.27
72762;SHT30;60886;55.034;73.150;2022-11-15T01:20:58;2.79;85.37
72762;SHT30;60886;55.034;73.150;2022-11-15T01:23:54;2.80;85.37
72762;SHT30;60886;55.034;73.150;2022-11-15T01:26:39;2.79;85.15
72762;SHT30;60886;55.034;73.150;2022-11-15T01:29:26;2.77;85.16
72762;SHT30;60886;55.034;73.150;2022-11-15T01:32:11;2.81;85.21
72762;SHT30;60886;55.034;73.150;2022-11-15T01:34:56;2.80;84.91
72762;SHT30;60886;55.034;73.150;2022-11-15T01:37:46;2.81;84.98
72762;SHT30;60886;55.034;73.150;2022-11-15T01:40:30;2.83;84.84
72762;SHT30;60886;55.034;73.150;2022-11-15T01:43:27;2.85;85.21
72762;SHT30;60886;55.034;73.150;2022-11-15T01:46:27;2.91;85.03
72762;SHT30;60886;55.034;73.150;2022-11-15T01:49:18;2.87;84.96
72762;SHT30;60886;55.034;73.150;2022-11-15T01:52:09;2.91;84.72
72762;SHT30;60886;55.034;73.150;2022-11-15T02:01:33;2.85;84.99
72762;SHT30;60886;55.034;73.150;2022-11-15T02:04:29;2.81;84.86
72762;SHT30;60886;55.034;73.150;2022-11-15T02:07:17;2.81;84.84
72762;SHT30;60886;55.034;73.150;2022-11-15T02:10:12;2.81;85.24
72762;SHT30;60886;55.034;73.150;2022-11-15T02:12:57;2.81;85.02
72762;SHT30;60886;55.034;73.150;2022-11-15T02:16:13;2.79;85.03
72762;SHT30;60886;55.034;73.150;2022-11-15T02:28:45;2.64;85.22
72762;SHT30;60886;55.034;73.150;2022-11-15T02:38:03;2.77;85.31
72762;SHT30;60886;55.034;73.150;2022-11-15T02:41:01;2.80;85.12
72762;SHT30;60886;55.034;73.150;2022-11-15T02:43:51;2.81;84.90
72762;SHT30;60886;55.034;73.150;2022-11-15T02:47:00;2.81;85.06
72762;SHT30;60886;55.034;73.150;2022-11-15T02:50:06;2.90;84.75
72762;SHT30;60886;55.034;73.150;2022-11-15T02:52:51;2.87;84.58
72762;SHT30;60886;55.034;73.150;2022-11-15T02:55:38;2.93;84.44
72762;SHT30;60886;55.034;73.150;2022-11-15T03:04:56;2.90;84.76
72762;SHT30;60886;55.034;73.150;2022-11-15T03:14:08;2.98;84.69
72762;SHT30;60886;55.034;73.150;2022-11-15T03:17:22;2.98;83.86
72762;SHT30;60886;55.034;73.150;2022-11-15T03:20:09;2.95;84.01
72762;SHT30;60886;55.034;73.150;2022-11-15T03:23:01;3.00;83.85
72762;SHT30;60886;55.034;73.150;2022-11-15T03:25:50;3.03;83.94
72762;SHT30;60886;55.034;73.150;2022-11-15T03:28:39;3.04;84.05
72762;SHT30;60886;55.034;73.150;2022-11-15T03:31:31;3.04;83.57
72762;SHT30;60886;55.034;73.150;2022-11-15T03:37:29;3.14;83.57
72762;SHT30;60886;55.034;73.150;2022-11-15T03:40:16;3.21;83.44
72762;SHT30;60886;55.034;73.150;2022-11-15T03:43:15;3.21;83.03
72762;SHT30;60886;55.034;73.150;2022-11-15T03:46:12;3.28;83.72
72762;SHT30;60886;55.034;73.150;2022-11-15T03:49:15;3.32;83.12
72762;SHT30;60886;55.034;73.150;2022-11-15T03:52:07;3.36;83.72
72762;SHT30;60886;55.034;73.150;2022-11-15T03:54:56;3.49;82.96
72762;SHT30;60886;55.034;73.150;2022-11-15T03:57:42;3.52;82.55
72762;SHT30;60886;55.034;73.150;2022-11-15T04:00:32;3.54;83.11
72762;SHT30;60886;55.034;73.150;2022-11-15T04:03:16;3.55;82.02
72762;SHT30;60886;55.034;73.150;2022-11-15T04:06:01;3.62;82.26
72762;SHT30;60886;55.034;73.150;2022-11-15T04:08:56;3.63;82.12
72762;SHT30;60886;55.034;73.150;2022-11-15T04:11:46;3.63;81.95
72762;SHT30;60886;55.034;73.150;2022-11-15T04:14:30;3.65;82.02
72762;SHT30;60886;55.034;73.150;2022-11-15T04:17:15;3.65;81.91
72762;SHT30;60886;55.034;73.150;2022-11-15T04:20:15;3.66;82.19
72762;SHT30;60886;55.034;73.150;2022-11-15T04:23:30;3.66;81.67
72762;SHT30;60886;55.034;73.150;2022-11-15T04:26:50;3.69;81.51
72762;SHT30;60886;55.034;73.150;2022-11-15T04:29:53;3.66;81.23
72762;SHT30;60886;55.034;73.150;2022-11-15T04:33:02;3.65;81.34
72762;SHT30;60886;55.034;73.150;2022-11-15T04:36:11;3.65;81.93
72762;SHT30;60886;55.034;73.150;2022-11-15T04:39:33;3.63;82.18
72762;SHT30;60886;55.034;73.150;2022-11-15T04:42:36;3.59;81.80
72762;SHT30;60886;55.034;73.150;2022-11-15T04:45:39;3.59;81.98
72762;SHT30;60886;55.034;73.150;2022-11-15T04:48:24;3.59;82.41
72762;SHT30;60886;55.034;73.150;2022-11-15T04:51:14;3.65;81.92
72762;SHT30;60886;55.034;73.150;2022-11-15T04:54:03;3.63;81.90
72762;SHT30;60886;55.034;73.150;2022-11-15T04:56:47;3.65;82.16
72762;SHT30;60886;55.034;73.150;2022-11-15T04:59:32;3.52;82.00
72762;SHT30;60886;55.034;73.150;2022-11-15T05:02:26;3.51;82.23
72762;SHT30;60886;55.034;73.150;2022-11-15T05:05:33;3.49;81.71
72762;SHT30;60886;55.034;73.150;2022-11-15T05:08:18;3.51;82.27
72762;SHT30;60886;55.034;73.150;2022-11-15T05:11:13;3.52;82.64
72762;SHT30;60886;55.034;73.150;2022-11-15T05:14:02;3.60;82.16
72762;SHT30;60886;55.034;73.150;2022-11-15T05:16:53;3.65;82.06
72762;SHT30;60886;55.034;73.150;2022-11-15T05:19:38;3.72;82.41
72762;SHT30;60886;55.034;73.150;2022-11-15T05:22:22;3.76;81.69
72762;SHT30;60886;55.034;73.150;2022-11-15T05:25:08;3.80;82.09
72762;SHT30;60886;55.034;73.150;2022-11-15T05:27:53;3.79;81.89
72762;SHT30;60886;55.034;73.150;2022-11-15T05:30:38;3.83;81.18
72762;SHT30;60886;55.034;73.150;2022-11-15T05:33:23;3.86;81.50
72762;SHT30;60886;55.034;73.150;2022-11-15T05:39:14;3.87;81.13
72762;SHT30;60886;55.034;73.150;2022-11-15T05:42:11;3.80;81.43
72762;SHT30;60886;55.034;73.150;2022-11-15T05:44:57;3.75;81.30
72762;SHT30;60886;55.034;73.150;2022-11-15T05:47:43;3.73;81.29
72762;SHT30;60886;55.034;73.150;2022-11-15T05:50:40;3.70;80.88
72762;SHT30;60886;55.034;73.150;2022-11-15T05:53:26;3.70;81.03
72762;SHT30;60886;55.034;73.150;2022-11-15T05:56:11;3.63;81.78
72762;SHT30;60886;55.034;73.150;2022-11-15T05:58:57;3.65;81.80
72762;SHT30;60886;55.034;73.150;2022-11-15T06:01:43;3.60;81.65
72762;SHT30;60886;55.034;73.150;2022-11-15T06:04:28;3.54;81.90
72762;SHT30;60886;55.034;73.150;2022-11-15T06:07:13;3.62;82.48
72762;SHT30;60886;55.034;73.150;2022-11-15T06:09:59;3.56;81.81
72762;SHT30;60886;55.034;73.150;2022-11-15T06:12:44;3.67;82.55
72762;SHT30;60886;55.034;73.150;2022-11-15T06:15:39;3.75;81.23
72762;SHT30;60886;55.034;73.150;2022-11-15T06:18:24;3.70;81.99
72762;SHT30;60886;55.034;73.150;2022-11-15T06:21:08;3.63;81.52
72762;SHT30;60886;55.034;73.150;2022-11-15T06:23:53;3.62;81.64
72762;SHT30;60886;55.034;73.150;2022-11-15T06:26:38;3.48;81.43
72762;SHT30;60886;55.034;73.150;2022-11-15T06:29:23;3.31;82.36
72762;SHT30;60886;55.034;73.150;2022-11-15T06:32:07;3.26;82.61
72762;SHT30;60886;55.034;73.150;2022-11-15T06:34:52;3.24;83.29
72762;SHT30;60886;55.034;73.150;2022-11-15T06:37:37;3.26;83.83
72762;SHT30;60886;55.034;73.150;2022-11-15T06:40:22;3.38;83.67
72762;SHT30;60886;55.034;73.150;2022-11-15T06:43:07;3.36;83.61
72762;SHT30;60886;55.034;73.150;2022-11-15T06:45:52;3.46;83.78
72762;SHT30;60886;55.034;73.150;2022-11-15T06:48:37;3.54;83.18
72762;SHT30;60886;55.034;73.150;2022-11-15T06:51:22;3.56;82.63
72762;SHT30;60886;55.034;73.150;2022-11-15T06:54:07;3.56;83.46
72762;SHT30;60886;55.034;73.150;2022-11-15T06:56:52;3.63;82.90
72762;SHT30;60886;55.034;73.150;2022-11-15T06:59:37;3.67;82.60
72762;SHT30;60886;55.034;73.150;2022-11-15T07:02:32;3.65;82.19
72762;SHT30;60886;55.034;73.150;2022-11-15T07:05:16;3.70;82.79
72762;SHT30;60886;55.034;73.150;2022-11-15T07:08:01;3.63;82.00
72762;SHT30;60886;55.034;73.150;2022-11-15T07:10:46;3.58;82.06
72762;SHT30;60886;55.034;73.150;2022-11-15T07:13:32;3.60;82.46
72762;SHT30;60886;55.034;73.150;2022-11-15T07:16:27;3.55;82.09
72762;SHT30;60886;55.034;73.150;2022-11-15T07:19:12;3.52;82.46
72762;SHT30;60886;55.034;73.150;2022-11-15T07:21:56;3.52;82.79
72762;SHT30;60886;55.034;73.150;2022-11-15T07:24:51;3.58;82.31
72762;SHT30;60886;55.034;73.150;2022-11-15T07:27:35;3.65;82.43
72762;SHT30;60886;55.034;73.150;2022-11-15T07:30:20;3.65;82.48
72762;SHT30;60886;55.034;73.150;2022-11-15T07:33:05;3.69;82.26
72762;SHT30;60886;55.034;73.150;2022-11-15T07:35:50;3.66;82.21
72762;SHT30;60886;55.034;73.150;2022-11-15T07:38:35;3.67;81.99
72762;SHT30;60886;55.034;73.150;2022-11-15T07:41:20;3.69;82.46
72762;SHT30;60886;55.034;73.150;2022-11-15T07:44:05;3.55;81.99
72762;SHT30;60886;55.034;73.150;2022-11-15T07:47:00;3.52;82.89
72762;SHT30;60886;55.034;73.150;2022-11-15T07:49:46;3.49;81.90
72762;SHT30;60886;55.034;73.150;2022-11-15T07:52:36;3.40;83.05
72762;SHT30;60886;55.034;73.150;2022-11-15T07:55:22;3.48;82.69
72762;SHT30;60886;55.034;73.150;2022-11-15T07:58:10;3.52;82.07
72762;SHT30;60886;55.034;73.150;2022-11-15T08:00:55;3.55;82.09
72762;SHT30;60886;55.034;73.150;2022-11-15T08:03:40;3.39;82.51
72762;SHT30;60886;55.034;73.150;2022-11-15T08:06:29;3.45;82.36
72762;SHT30;60886;55.034;73.150;2022-11-15T08:09:14;3.49;82.46
72762;SHT30;60886;55.034;73.150;2022-11-15T08:11:59;3.52;82.24
72762;SHT30;60886;55.034;73.150;2022-11-15T08:14:44;3.56;82.29
72762;SHT30;60886;55.034;73.150;2022-11-15T08:17:29;3.60;82.04
72762;SHT30;60886;55.034;73.150;2022-11-15T08:20:16;3.65;82.02
72762;SHT30;60886;55.034;73.150;2022-11-15T08:23:03;3.66;81.64
72762;SHT30;60886;55.034;73.150;2022-11-15T08:25:48;3.66;82.09
72762;SHT30;60886;55.034;73.150;2022-11-15T08:28:32;3.72;81.52
72762;SHT30;60886;55.034;73.150;2022-11-15T08:31:18;3.72;81.87
72762;SHT30;60886;55.034;73.150;2022-11-15T08:34:08;3.67;81.96
72762;SHT30;60886;55.034;73.150;2022-11-15T08:37:00;3.69;82.24
72762;SHT30;60886;55.034;73.150;2022-11-15T08:39:45;3.66;81.57
72762;SHT30;60886;55.034;73.150;2022-11-15T08:42:35;3.69;81.67
72762;SHT30;60886;55.034;73.150;2022-11-15T08:45:25;3.80;81.32
72762;SHT30;60886;55.034;73.150;2022-11-15T08:48:10;3.72;81.34
72762;SHT30;60886;55.034;73.150;2022-11-15T08:50:55;3.58;81.87
72762;SHT30;60886;55.034;73.150;2022-11-15T08:53:41;3.52;82.27
72762;SHT30;60886;55.034;73.150;2022-11-15T08:56:26;3.52;82.21
72762;SHT30;60886;55.034;73.150;2022-11-15T08:59:11;3.56;82.44
72762;SHT30;60886;55.034;73.150;2022-11-15T09:01:55;3.55;82.47
72762;SHT30;60886;55.034;73.150;2022-11-15T09:04:41;3.51;82.49
72762;SHT30;60886;55.034;73.150;2022-11-15T09:07:26;3.58;82.30
72762;SHT30;60886;55.034;73.150;2022-11-15T09:10:14;3.63;82.26
72762;SHT30;60886;55.034;73.150;2022-11-15T09:12:58;3.63;82.17
72762;SHT30;60886;55.034;73.150;2022-11-15T09:15:43;3.67;81.85
72762;SHT30;60886;55.034;73.150;2022-11-15T09:18:28;3.63;82.19
72762;SHT30;60886;55.034;73.150;2022-11-15T09:21:13;3.62;82.42
72762;SHT30;60886;55.034;73.150;2022-11-15T09:23:58;3.59;82.76
72762;SHT30;60886;55.034;73.150;2022-11-15T09:26:43;3.62;82.80
72762;SHT30;60886;55.034;73.150;2022-11-15T09:29:29;3.59;82.82
72762;SHT30;60886;55.034;73.150;2022-11-15T09:32:13;3.65;82.29
72762;SHT30;60886;55.034;73.150;2022-11-15T09:34:59;3.65;82.68
72762;SHT30;60886;55.034;73.150;2022-11-15T09:37:49;3.66;82.61
72762;SHT30;60886;55.034;73.150;2022-11-15T09:40:36;3.73;82.72
72762;SHT30;60886;55.034;73.150;2022-11-15T09:49:24;3.70;82.83
72762;SHT30;60886;55.034;73.150;2022-11-15T09:52:07;3.67;82.83
72762;SHT30;60886;55.034;73.150;2022-11-15T09:54:45;3.67;82.34
72762;SHT30;60886;55.034;73.150;2022-11-15T09:57:45;3.65;81.74
72762;SHT30;60886;55.034;73.150;2022-11-15T10:00:34;3.59;82.07
72762;SHT30;60886;55.034;73.150;2022-11-15T10:05:52;3.54;81.93
72762;SHT30;60886;55.034;73.150;2022-11-15T10:11:19;3.56;81.98
72762;SHT30;60886;55.034;73.150;2022-11-15T10:13:47;3.55;82.02
72762;SHT30;60886;55.034;73.150;2022-11-15T10:22:03;3.51;80.90
72762;SHT30;60886;55.034;73.150;2022-11-15T10:24:43;3.38;80.73
72762;SHT30;60886;55.034;73.150;2022-11-15T10:27:15;3.36;80.25
72762;SHT30;60886;55.034;73.150;2022-11-15T10:29:49;3.28;80.45
72762;SHT30;60886;55.034;73.150;2022-11-15T10:32:18;3.09;80.94
72762;SHT30;60886;55.034;73.150;2022-11-15T10:34:47;3.01;81.92
72762;SHT30;60886;55.034;73.150;2022-11-15T10:37:13;3.03;81.61
72762;SHT30;60886;55.034;73.150;2022-11-15T10:39:40;2.94;81.77
72762;SHT30;60886;55.034;73.150;2022-11-15T10:42:28;2.97;82.39
72762;SHT30;60886;55.034;73.150;2022-11-15T10:44:54;2.97;82.07
72762;SHT30;60886;55.034;73.150;2022-11-15T10:47:39;2.95;82.50
72762;SHT30;60886;55.034;73.150;2022-11-15T10:53:02;2.84;82.80
72762;SHT30;60886;55.034;73.150;2022-11-15T10:55:31;2.84;82.78
72762;SHT30;60886;55.034;73.150;2022-11-15T10:58:06;2.91;82.41
72762;SHT30;60886;55.034;73.150;2022-11-15T11:00:54;2.93;82.24
72762;SHT30;60886;55.034;73.150;2022-11-15T11:03:29;2.85;82.74
72762;SHT30;60886;55.034;73.150;2022-11-15T11:06:05;2.85;82.39
72762;SHT30;60886;55.034;73.150;2022-11-15T11:08:32;2.87;82.62
72762;SHT30;60886;55.034;73.150;2022-11-15T11:11:01;2.87;82.40
72762;SHT30;60886;55.034;73.150;2022-11-15T11:13:39;2.85;82.13
72762;SHT30;60886;55.034;73.150;2022-11-15T11:19:08;2.93;81.68
72762;SHT30;60886;55.034;73.150;2022-11-15T11:30:08;3.01;81.75
72762;SHT30;60886;55.034;73.150;2022-11-15T11:35:28;3.04;81.54
72762;SHT30;60886;55.034;73.150;2022-11-15T11:41:38;3.03;81.87
72762;SHT30;60886;55.034;73.150;2022-11-15T11:46:55;3.00;82.10
72762;SHT30;60886;55.034;73.150;2022-11-15T11:52:29;2.98;82.07
72762;SHT30;60886;55.034;73.150;2022-11-15T11:55:18;3.00;82.49
72762;SHT30;60886;55.034;73.150;2022-11-15T11:58:03;2.97;82.54
72762;SHT30;60886;55.034;73.150;2022-11-15T12:00:33;3.00;82.38
72762;SHT30;60886;55.034;73.150;2022-11-15T12:03:34;3.01;82.43
72762;SHT30;60886;55.034;73.150;2022-11-15T12:06:12;3.04;82.54
72762;SHT30;60886;55.034;73.150;2022-11-15T12:08:45;2.98;82.62
72762;SHT30;60886;55.034;73.150;2022-11-15T12:13:59;2.95;82.76
72762;SHT30;60886;55.034;73.150;2022-11-15T12:16:31;2.98;82.68
72762;SHT30;60886;55.034;73.150;2022-11-15T12:19:03;3.01;82.76
72762;SHT30;60886;55.034;73.150;2022-11-15T12:24:35;3.03;82.47
72762;SHT30;60886;55.034;73.150;2022-11-15T12:30:00;3.01;82.71
72762;SHT30;60886;55.034;73.150;2022-11-15T12:32:31;2.98;82.84
72762;SHT30;60886;55.034;73.150;2022-11-15T12:35:00;2.97;82.97
72762;SHT30;60886;55.034;73.150;2022-11-15T12:37:34;2.93;83.00
72762;SHT30;60886;55.034;73.150;2022-11-15T12:45:43;2.79;83.83
72762;SHT30;60886;55.034;73.150;2022-11-15T13:07:02;2.73;82.34
72762;SHT30;60886;55.034;73.150;2022-11-15T13:17:47;2.60;82.42
72762;SHT30;60886;55.034;73.150;2022-11-15T13:22:51;2.63;82.19
72762;SHT30;60886;55.034;73.150;2022-11-15T13:33:37;2.57;81.61
72762;SHT30;60886;55.034;73.150;2022-11-15T13:36:20;2.49;81.35
72762;SHT30;60886;55.034;73.150;2022-11-15T13:41:33;2.39;81.71
72762;SHT30;60886;55.034;73.150;2022-11-15T13:44:01;2.33;81.98
72762;SHT30;60886;55.034;73.150;2022-11-15T13:46:38;2.29;82.03
72762;SHT30;60886;55.034;73.150;2022-11-15T13:49:10;2.34;82.33
72762;SHT30;60886;55.034;73.150;2022-11-15T13:51:48;2.33;82.29
72762;SHT30;60886;55.034;73.150;2022-11-15T13:54:20;2.25;82.34
72762;SHT30;60886;55.034;73.150;2022-11-15T14:02:43;2.06;83.92
72762;SHT30;60886;55.034;73.150;2022-11-15T14:05:17;2.08;83.90
72762;SHT30;60886;55.034;73.150;2022-11-15T14:08:20;2.08;83.69
72762;SHT30;60886;55.034;73.150;2022-11-15T14:10:48;2.10;83.89
72762;SHT30;60886;55.034;73.150;2022-11-15T14:13:29;2.12;83.75
72762;SHT30;60886;55.034;73.150;2022-11-15T14:16:20;2.12;83.64
72762;SHT30;60886;55.034;73.150;2022-11-15T14:18:52;2.10;83.50
72762;SHT30;60886;55.034;73.150;2022-11-15T14:21:19;2.10;83.81
72762;SHT30;60886;55.034;73.150;2022-11-15T14:24:15;2.13;83.69
72762;SHT30;60886;55.034;73.150;2022-11-15T14:26:42;2.16;83.80
72762;SHT30;60886;55.034;73.150;2022-11-15T14:29:25;2.22;83.20
72762;SHT30;60886;55.034;73.150;2022-11-15T14:32:12;2.15;82.71
72762;SHT30;60886;55.034;73.150;2022-11-15T14:34:39;2.06;83.08
72762;SHT30;60886;55.034;73.150;2022-11-15T14:37:25;2.03;83.38
72762;SHT30;60886;55.034;73.150;2022-11-15T14:39:52;1.92;82.74
72762;SHT30;60886;55.034;73.150;2022-11-15T14:42:20;1.89;82.74
72762;SHT30;60886;55.034;73.150;2022-11-15T14:44:47;1.94;83.16
72762;SHT30;60886;55.034;73.150;2022-11-15T14:47:20;1.94;82.26
72762;SHT30;60886;55.034;73.150;2022-11-15T14:49:46;1.94;81.81
72762;SHT30;60886;55.034;73.150;2022-11-15T14:54:48;1.88;81.92
72762;SHT30;60886;55.034;73.150;2022-11-15T14:57:20;1.88;81.62
72762;SHT30;60886;55.034;73.150;2022-11-15T14:59:51;1.81;81.22
72762;SHT30;60886;55.034;73.150;2022-11-15T15:02:25;1.79;81.01
72762;SHT30;60886;55.034;73.150;2022-11-15T15:04:53;1.71;81.15
72762;SHT30;60886;55.034;73.150;2022-11-15T15:07:29;1.65;80.78
72762;SHT30;60886;55.034;73.150;2022-11-15T15:09:55;1.58;81.42
72762;SHT30;60886;55.034;73.150;2022-11-15T15:12:23;1.56;81.43
72762;SHT30;60886;55.034;73.150;2022-11-15T15:14:53;1.52;81.62
72762;SHT30;60886;55.034;73.150;2022-11-15T15:17:19;1.48;81.19
72762;SHT30;60886;55.034;73.150;2022-11-15T15:19:49;1.48;81.64
72762;SHT30;60886;55.034;73.150;2022-11-15T15:22:27;1.51;81.40
72762;SHT30;60886;55.034;73.150;2022-11-15T15:25:22;1.50;80.59
72762;SHT30;60886;55.034;73.150;2022-11-15T15:28:00;1.41;80.22
72762;SHT30;60886;55.034;73.150;2022-11-15T15:30:28;1.40;79.79
72762;SHT30;60886;55.034;73.150;2022-11-15T15:32:54;1.40;79.47
72762;SHT30;60886;55.034;73.150;2022-11-15T15:35:21;1.40;79.47
72762;SHT30;60886;55.034;73.150;2022-11-15T15:37:48;1.41;78.93
72762;SHT30;60886;55.034;73.150;2022-11-15T15:40:23;1.33;79.33
72762;SHT30;60886;55.034;73.150;2022-11-15T15:42:50;1.24;78.46
72762;SHT30;60886;55.034;73.150;2022-11-15T15:45:17;1.17;78.28
72762;SHT30;60886;55.034;73.150;2022-11-15T15:47:44;1.10;77.80
72762;SHT30;60886;55.034;73.150;2022-11-15T15:50:28;1.08;79.13
72762;SHT30;60886;55.034;73.150;2022-11-15T15:52:57;1.05;79.03
72762;SHT30;60886;55.034;73.150;2022-11-15T15:55:29;1.11;78.97
72762;SHT30;60886;55.034;73.150;2022-11-15T15:57:55;1.08;78.59
72762;SHT30;60886;55.034;73.150;2022-11-15T16:00:23;1.00;77.71
72762;SHT30;60886;55.034;73.150;2022-11-15T16:03:00;1.00;77.74
72762;SHT30;60886;55.034;73.150;2022-11-15T16:05:26;0.90;77.78
72762;SHT30;60886;55.034;73.150;2022-11-15T16:07:53;0.86;78.12
72762;SHT30;60886;55.034;73.150;2022-11-15T16:10:29;0.77;78.34
72762;SHT30;60886;55.034;73.150;2022-11-15T16:12:57;0.75;78.68
72762;SHT30;60886;55.034;73.150;2022-11-15T16:15:26;0.70;78.30
72762;SHT30;60886;55.034;73.150;2022-11-15T16:17:54;0.77;77.81
72762;SHT30;60886;55.034;73.150;2022-11-15T16:20:41;0.76;78.52
72762;SHT30;60886;55.034;73.150;2022-11-15T16:23:18;0.69;77.65
72762;SHT30;60886;55.034;73.150;2022-11-15T16:25:48;0.60;77.80
72762;SHT30;60886;55.034;73.150;2022-11-15T16:28:29;0.50;76.81
72762;SHT30;60886;55.034;73.150;2022-11-15T16:31:04;0.41;77.52
72762;SHT30;60886;55.034;73.150;2022-11-15T16:33:31;0.33;78.18
72762;SHT30;60886;55.034;73.150;2022-11-15T16:35:58;0.38;78.34
72762;SHT30;60886;55.034;73.150;2022-11-15T16:38:28;0.37;78.40
72762;SHT30;60886;55.034;73.150;2022-11-15T16:40:54;0.33;78.38
72762;SHT30;60886;55.034;73.150;2022-11-15T16:43:31;0.32;78.17
72762;SHT30;60886;55.034;73.150;2022-11-15T16:45:57;0.30;78.19
72762;SHT30;60886;55.034;73.150;2022-11-15T16:48:27;0.26;78.44
72762;SHT30;60886;55.034;73.150;2022-11-15T16:50:55;0.26;77.91
72762;SHT30;60886;55.034;73.150;2022-11-15T16:53:27;0.18;77.81
72762;SHT30;60886;55.034;73.150;2022-11-15T16:55:54;0.17;77.33
72762;SHT30;60886;55.034;73.150;2022-11-15T16:58:30;0.07;77.18
72762;SHT30;60886;55.034;73.150;2022-11-15T17:00:58;0.09;77.87
72762;SHT30;60886;55.034;73.150;2022-11-15T17:03:24;0.05;78.11
72762;SHT30;60886;55.034;73.150;2022-11-15T17:05:51;-0.01;76.56
72762;SHT30;60886;55.034;73.150;2022-11-15T17:08:18;-0.05;76.29
72762;SHT30;60886;55.034;73.150;2022-11-15T17:10:46;-0.17;77.73
72762;SHT30;60886;55.034;73.150;2022-11-15T17:13:22;-0.25;77.19
72762;SHT30;60886;55.034;73.150;2022-11-15T17:16:11;-0.25;77.47
72762;SHT30;60886;55.034;73.150;2022-11-15T17:18:39;-0.26;77.29
72762;SHT30;60886;55.034;73.150;2022-11-15T17:21:14;-0.29;77.26
72762;SHT30;60886;55.034;73.150;2022-11-15T17:23:41;-0.29;77.49
72762;SHT30;60886;55.034;73.150;2022-11-15T17:26:17;-0.27;77.57
72762;SHT30;60886;55.034;73.150;2022-11-15T17:28:43;-0.29;78.00
72762;SHT30;60886;55.034;73.150;2022-11-15T17:31:20;-0.25;77.96
72762;SHT30;60886;55.034;73.150;2022-11-15T17:33:56;-0.22;77.48
72762;SHT30;60886;55.034;73.150;2022-11-15T17:36:22;-0.26;77.92
72762;SHT30;60886;55.034;73.150;2022-11-15T17:38:49;-0.26;77.89
72762;SHT30;60886;55.034;73.150;2022-11-15T17:41:21;-0.33;78.62
72762;SHT30;60886;55.034;73.150;2022-11-15T17:43:58;-0.26;78.39
72762;SHT30;60886;55.034;73.150;2022-11-15T17:46:35;-0.32;78.66
72762;SHT30;60886;55.034;73.150;2022-11-15T17:49:05;-0.37;79.13
72762;SHT30;60886;55.034;73.150;2022-11-15T17:51:31;-0.34;79.30
72762;SHT30;60886;55.034;73.150;2022-11-15T17:53:58;-0.34;79.19
72762;SHT30;60886;55.034;73.150;2022-11-15T17:56:30;-0.32;80.08
72762;SHT30;60886;55.034;73.150;2022-11-15T17:58:58;-0.29;79.84
72762;SHT30;60886;55.034;73.150;2022-11-15T18:01:29;-0.33;79.75
72762;SHT30;60886;55.034;73.150;2022-11-15T18:04:04;-0.32;80.24
72762;SHT30;60886;55.034;73.150;2022-11-15T18:06:33;-0.33;79.57
72762;SHT30;60886;55.034;73.150;2022-11-15T18:09:01;-0.30;79.61
72762;SHT30;60886;55.034;73.150;2022-11-15T18:11:30;-0.27;79.64
72762;SHT30;60886;55.034;73.150;2022-11-15T18:13:59;-0.27;79.26
72762;SHT30;60886;55.034;73.150;2022-11-15T18:16:36;-0.32;79.22
72762;SHT30;60886;55.034;73.150;2022-11-15T18:19:03;-0.36;79.19
72762;SHT30;60886;55.034;73.150;2022-11-15T18:21:44;-0.33;79.42
72762;SHT30;60886;55.034;73.150;2022-11-15T18:24:33;-0.40;79.19
72762;SHT30;60886;55.034;73.150;2022-11-15T18:27:01;-0.37;79.80
72762;SHT30;60886;55.034;73.150;2022-11-15T18:29:27;-0.41;79.70
72762;SHT30;60886;55.034;73.150;2022-11-15T18:32:00;-0.43;79.99
72762;SHT30;60886;55.034;73.150;2022-11-15T18:34:29;-0.47;79.71
72762;SHT30;60886;55.034;73.150;2022-11-15T18:37:09;-0.52;80.44
72762;SHT30;60886;55.034;73.150;2022-11-15T18:39:35;-0.47;79.86
72762;SHT30;60886;55.034;73.150;2022-11-15T18:42:02;-0.52;79.33
72762;SHT30;60886;55.034;73.150;2022-11-15T18:44:29;-0.60;79.48
72762;SHT30;60886;55.034;73.150;2022-11-15T18:46:56;-0.60;80.05
72762;SHT30;60886;55.034;73.150;2022-11-15T18:49:32;-0.56;79.74
72762;SHT30;60886;55.034;73.150;2022-11-15T18:51:59;-0.54;79.43
72762;SHT30;60886;55.034;73.150;2022-11-15T18:54:25;-0.58;78.92
72762;SHT30;60886;55.034;73.150;2022-11-15T18:56:58;-0.66;78.43
72762;SHT30;60886;55.034;73.150;2022-11-15T18:59:30;-0.78;77.45
72762;SHT30;60886;55.034;73.150;2022-11-15T19:01:56;-0.90;77.28
72762;SHT30;60886;55.034;73.150;2022-11-15T19:04:23;-0.92;76.51
72762;SHT30;60886;55.034;73.150;2022-11-15T19:06:55;-1.00;76.60
72762;SHT30;60886;55.034;73.150;2022-11-15T19:09:21;-0.94;77.07
72762;SHT30;60886;55.034;73.150;2022-11-15T19:11:52;-1.00;75.85
72762;SHT30;60886;55.034;73.150;2022-11-15T19:14:19;-1.07;76.41
72762;SHT30;60886;55.034;73.150;2022-11-15T19:16:48;-1.11;76.23
72762;SHT30;60886;55.034;73.150;2022-11-15T19:19:23;-1.16;76.05
72762;SHT30;60886;55.034;73.150;2022-11-15T19:21:51;-1.18;76.77